sensor_id;sensor_type;location;lat;lon;timestamp;P1;durP1;ratioP1;P2;durP2;ratioP2
38581;SDS011;24349;53.720;10.014;2023-02-08T00:01:14;36.60;;;23.48;;
38581;SDS011;24349;53.720;10.014;2023-02-08T00:03:42;33.58;;;21.10;;
38581;SDS011;24349;53.720;10.014;2023-02-08T00:06:08;33.38;;;20.30;;
38581;SDS011;24349;53.720;10.014;2023-02-08T00:08:36;31.55;;;18.92;;
38581;SDS011;24349;53.720;10.014;2023-02-08T00:11:03;33.88;;;20.75;;
38581;SDS011;24349;53.720;10.014;2023-02-08T00:13:29;42.10;;;26.10;;
38581;SDS011;24349;53.720;10.014;2023-02-08T00:15:56;38.63;;;23.02;;
38581;SDS011;24349;53.720;10.014;2023-02-08T00:18:21;37.75;;;23.58;;
38581;SDS011;24349;53.720;10.014;2023-02-08T00:20:47;40.33;;;24.33;;
38581;SDS011;24349;53.720;10.014;2023-02-08T00:23:13;37.45;;;22.50;;
38581;SDS011;24349;53.720;10.014;2023-02-08T00:25:39;32.22;;;19.02;;
38581;SDS011;24349;53.720;10.014;2023-02-08T00:28:06;34.72;;;19.73;;
38581;SDS011;24349;53.720;10.014;2023-02-08T00:30:32;37.70;;;21.83;;
38581;SDS011;24349;53.720;10.014;2023-02-08T00:32:59;40.90;;;25.33;;
38581;SDS011;24349;53.720;10.014;2023-02-08T00:35:26;33.78;;;21.30;;
38581;SDS011;24349;53.720;10.014;2023-02-08T00:37:52;32.38;;;20.05;;
38581;SDS011;24349;53.720;10.014;2023-02-08T00:40:17;37.50;;;23.35;;
38581;SDS011;24349;53.720;10.014;2023-02-08T00:42:43;34.35;;;20.27;;
38581;SDS011;24349;53.720;10.014;2023-02-08T00:45:09;36.58;;;23.10;;
38581;SDS011;24349;53.720;10.014;2023-02-08T00:47:34;27.30;;;17.25;;
38581;SDS011;24349;53.720;10.014;2023-02-08T00:50:00;37.58;;;22.40;;
38581;SDS011;24349;53.720;10.014;2023-02-08T00:52:26;37.75;;;22.90;;
38581;SDS011;24349;53.720;10.014;2023-02-08T00:54:52;30.40;;;17.75;;
38581;SDS011;24349;53.720;10.014;2023-02-08T00:57:17;27.95;;;17.50;;
38581;SDS011;24349;53.720;10.014;2023-02-08T00:59:43;30.20;;;18.85;;
38581;SDS011;24349;53.720;10.014;2023-02-08T01:02:09;35.10;;;21.58;;
38581;SDS011;24349;53.720;10.014;2023-02-08T01:04:35;33.83;;;22.05;;
38581;SDS011;24349;53.720;10.014;2023-02-08T01:07:00;31.20;;;18.45;;
38581;SDS011;24349;53.720;10.014;2023-02-08T01:09:26;28.30;;;18.17;;
38581;SDS011;24349;53.720;10.014;2023-02-08T01:11:52;28.90;;;17.40;;
38581;SDS011;24349;53.720;10.014;2023-02-08T01:14:17;33.60;;;20.52;;
38581;SDS011;24349;53.720;10.014;2023-02-08T01:16:43;28.17;;;17.48;;
38581;SDS011;24349;53.720;10.014;2023-02-08T01:19:08;33.58;;;20.85;;
38581;SDS011;24349;53.720;10.014;2023-02-08T01:21:35;32.88;;;20.85;;
38581;SDS011;24349;53.720;10.014;2023-02-08T01:24:06;28.90;;;17.88;;
38581;SDS011;24349;53.720;10.014;2023-02-08T01:26:32;28.88;;;18.67;;
38581;SDS011;24349;53.720;10.014;2023-02-08T01:28:57;38.40;;;24.45;;
38581;SDS011;24349;53.720;10.014;2023-02-08T01:31:24;36.40;;;23.70;;
38581;SDS011;24349;53.720;10.014;2023-02-08T01:33:55;32.72;;;20.73;;
38581;SDS011;24349;53.720;10.014;2023-02-08T01:36:21;31.42;;;20.83;;
38581;SDS011;24349;53.720;10.014;2023-02-08T01:38:47;32.97;;;20.15;;
38581;SDS011;24349;53.720;10.014;2023-02-08T01:41:15;32.90;;;19.75;;
38581;SDS011;24349;53.720;10.014;2023-02-08T01:46:33;32.47;;;19.08;;
38581;SDS011;24349;53.720;10.014;2023-02-08T01:49:10;27.77;;;16.83;;
38581;SDS011;24349;53.720;10.014;2023-02-08T01:51:44;26.17;;;15.23;;
38581;SDS011;24349;53.720;10.014;2023-02-08T01:54:29;29.88;;;16.60;;
38581;SDS011;24349;53.720;10.014;2023-02-08T01:57:02;32.63;;;19.95;;
38581;SDS011;24349;53.720;10.014;2023-02-08T01:59:31;31.02;;;17.95;;
38581;SDS011;24349;53.720;10.014;2023-02-08T02:02:06;32.78;;;20.27;;
38581;SDS011;24349;53.720;10.014;2023-02-08T02:04:36;33.08;;;19.40;;
38581;SDS011;24349;53.720;10.014;2023-02-08T02:07:02;28.27;;;16.95;;
38581;SDS011;24349;53.720;10.014;2023-02-08T02:09:35;32.97;;;20.75;;
38581;SDS011;24349;53.720;10.014;2023-02-08T02:12:06;31.35;;;17.77;;
38581;SDS011;24349;53.720;10.014;2023-02-08T02:14:34;35.47;;;21.65;;
38581;SDS011;24349;53.720;10.014;2023-02-08T02:17:01;32.88;;;20.33;;
38581;SDS011;24349;53.720;10.014;2023-02-08T02:25:05;29.05;;;18.58;;
38581;SDS011;24349;53.720;10.014;2023-02-08T02:30:34;30.58;;;16.75;;
38581;SDS011;24349;53.720;10.014;2023-02-08T02:38:14;30.55;;;18.17;;
38581;SDS011;24349;53.720;10.014;2023-02-08T02:40:59;28.50;;;18.00;;
38581;SDS011;24349;53.720;10.014;2023-02-08T02:44:03;29.40;;;16.95;;
38581;SDS011;24349;53.720;10.014;2023-02-08T02:49:11;29.95;;;17.83;;
38581;SDS011;24349;53.720;10.014;2023-02-08T02:54:48;27.85;;;17.15;;
38581;SDS011;24349;53.720;10.014;2023-02-08T02:57:18;31.75;;;17.70;;
38581;SDS011;24349;53.720;10.014;2023-02-08T02:59:48;26.38;;;16.38;;
38581;SDS011;24349;53.720;10.014;2023-02-08T03:02:14;38.38;;;22.67;;
38581;SDS011;24349;53.720;10.014;2023-02-08T03:12:38;31.13;;;20.63;;
38581;SDS011;24349;53.720;10.014;2023-02-08T03:18:05;31.35;;;18.38;;
38581;SDS011;24349;53.720;10.014;2023-02-08T03:23:45;29.05;;;18.05;;
38581;SDS011;24349;53.720;10.014;2023-02-08T03:26:30;30.83;;;18.67;;
38581;SDS011;24349;53.720;10.014;2023-02-08T03:31:36;32.60;;;19.02;;
38581;SDS011;24349;53.720;10.014;2023-02-08T03:37:06;29.20;;;17.95;;
38581;SDS011;24349;53.720;10.014;2023-02-08T03:39:36;32.95;;;19.45;;
38581;SDS011;24349;53.720;10.014;2023-02-08T03:42:05;30.52;;;17.88;;
38581;SDS011;24349;53.720;10.014;2023-02-08T03:44:39;35.47;;;19.10;;
38581;SDS011;24349;53.720;10.014;2023-02-08T03:47:11;36.47;;;21.95;;
38581;SDS011;24349;53.720;10.014;2023-02-08T03:49:42;32.28;;;18.92;;
38581;SDS011;24349;53.720;10.014;2023-02-08T03:52:12;29.50;;;16.88;;
38581;SDS011;24349;53.720;10.014;2023-02-08T03:54:44;31.38;;;18.70;;
38581;SDS011;24349;53.720;10.014;2023-02-08T03:57:20;37.75;;;21.00;;
38581;SDS011;24349;53.720;10.014;2023-02-08T04:00:00;36.10;;;20.73;;
38581;SDS011;24349;53.720;10.014;2023-02-08T04:02:30;32.75;;;18.70;;
38581;SDS011;24349;53.720;10.014;2023-02-08T04:04:58;36.58;;;20.73;;
38581;SDS011;24349;53.720;10.014;2023-02-08T04:07:25;32.08;;;19.10;;
38581;SDS011;24349;53.720;10.014;2023-02-08T04:09:51;33.63;;;20.08;;
38581;SDS011;24349;53.720;10.014;2023-02-08T04:12:17;40.33;;;22.42;;
38581;SDS011;24349;53.720;10.014;2023-02-08T04:14:42;37.63;;;21.90;;
38581;SDS011;24349;53.720;10.014;2023-02-08T04:17:08;34.80;;;20.95;;
38581;SDS011;24349;53.720;10.014;2023-02-08T04:19:33;37.35;;;20.33;;
38581;SDS011;24349;53.720;10.014;2023-02-08T04:21:59;31.63;;;18.65;;
38581;SDS011;24349;53.720;10.014;2023-02-08T04:24:25;40.53;;;22.35;;
38581;SDS011;24349;53.720;10.014;2023-02-08T04:26:50;35.00;;;19.75;;
38581;SDS011;24349;53.720;10.014;2023-02-08T04:29:16;36.97;;;19.83;;
38581;SDS011;24349;53.720;10.014;2023-02-08T04:31:42;40.17;;;21.65;;
38581;SDS011;24349;53.720;10.014;2023-02-08T04:34:08;38.78;;;21.27;;
38581;SDS011;24349;53.720;10.014;2023-02-08T04:36:33;40.75;;;21.90;;
38581;SDS011;24349;53.720;10.014;2023-02-08T04:38:59;37.75;;;21.85;;
38581;SDS011;24349;53.720;10.014;2023-02-08T04:41:24;38.50;;;21.15;;
38581;SDS011;24349;53.720;10.014;2023-02-08T04:43:50;36.05;;;20.60;;
38581;SDS011;24349;53.720;10.014;2023-02-08T04:46:16;36.75;;;20.75;;
38581;SDS011;24349;53.720;10.014;2023-02-08T04:48:41;41.22;;;22.88;;
38581;SDS011;24349;53.720;10.014;2023-02-08T04:51:07;38.13;;;21.02;;
38581;SDS011;24349;53.720;10.014;2023-02-08T04:53:32;33.05;;;19.50;;
38581;SDS011;24349;53.720;10.014;2023-02-08T04:55:58;40.03;;;22.42;;
38581;SDS011;24349;53.720;10.014;2023-02-08T04:58:24;32.17;;;18.65;;
38581;SDS011;24349;53.720;10.014;2023-02-08T05:00:50;34.30;;;20.67;;
38581;SDS011;24349;53.720;10.014;2023-02-08T05:03:15;42.35;;;23.10;;
38581;SDS011;24349;53.720;10.014;2023-02-08T05:05:41;39.78;;;21.83;;
38581;SDS011;24349;53.720;10.014;2023-02-08T05:08:07;32.70;;;19.33;;
38581;SDS011;24349;53.720;10.014;2023-02-08T05:10:32;32.08;;;18.60;;
38581;SDS011;24349;53.720;10.014;2023-02-08T05:12:58;34.92;;;20.02;;
38581;SDS011;24349;53.720;10.014;2023-02-08T05:15:23;34.70;;;20.60;;
38581;SDS011;24349;53.720;10.014;2023-02-08T05:17:49;41.65;;;22.85;;
38581;SDS011;24349;53.720;10.014;2023-02-08T05:20:15;34.30;;;21.27;;
38581;SDS011;24349;53.720;10.014;2023-02-08T05:22:40;35.80;;;19.75;;
38581;SDS011;24349;53.720;10.014;2023-02-08T05:25:06;37.08;;;20.80;;
38581;SDS011;24349;53.720;10.014;2023-02-08T05:27:32;37.80;;;21.33;;
38581;SDS011;24349;53.720;10.014;2023-02-08T05:29:59;46.83;;;24.70;;
38581;SDS011;24349;53.720;10.014;2023-02-08T05:32:24;43.75;;;23.42;;
38581;SDS011;24349;53.720;10.014;2023-02-08T05:34:50;42.35;;;23.40;;
38581;SDS011;24349;53.720;10.014;2023-02-08T05:37:16;41.20;;;22.02;;
38581;SDS011;24349;53.720;10.014;2023-02-08T05:39:41;46.85;;;24.30;;
38581;SDS011;24349;53.720;10.014;2023-02-08T05:42:07;42.58;;;23.35;;
38581;SDS011;24349;53.720;10.014;2023-02-08T05:44:33;43.20;;;22.48;;
38581;SDS011;24349;53.720;10.014;2023-02-08T05:46:58;46.67;;;24.10;;
38581;SDS011;24349;53.720;10.014;2023-02-08T05:49:24;48.60;;;25.15;;
38581;SDS011;24349;53.720;10.014;2023-02-08T05:51:49;51.05;;;26.85;;
38581;SDS011;24349;53.720;10.014;2023-02-08T05:54:15;45.80;;;24.85;;
38581;SDS011;24349;53.720;10.014;2023-02-08T05:56:42;47.08;;;25.67;;
38581;SDS011;24349;53.720;10.014;2023-02-08T05:59:07;51.40;;;26.08;;
38581;SDS011;24349;53.720;10.014;2023-02-08T06:01:34;51.35;;;26.70;;
38581;SDS011;24349;53.720;10.014;2023-02-08T06:04:00;47.88;;;25.25;;
38581;SDS011;24349;53.720;10.014;2023-02-08T06:06:26;48.95;;;26.23;;
38581;SDS011;24349;53.720;10.014;2023-02-08T06:08:52;48.42;;;25.25;;
38581;SDS011;24349;53.720;10.014;2023-02-08T06:11:17;48.97;;;25.00;;
38581;SDS011;24349;53.720;10.014;2023-02-08T06:13:44;46.92;;;25.10;;
38581;SDS011;24349;53.720;10.014;2023-02-08T06:16:10;50.47;;;26.13;;
38581;SDS011;24349;53.720;10.014;2023-02-08T06:18:36;51.13;;;28.25;;
38581;SDS011;24349;53.720;10.014;2023-02-08T06:21:02;51.80;;;26.10;;
38581;SDS011;24349;53.720;10.014;2023-02-08T06:23:28;47.17;;;24.55;;
38581;SDS011;24349;53.720;10.014;2023-02-08T06:25:53;47.75;;;25.25;;
38581;SDS011;24349;53.720;10.014;2023-02-08T06:28:20;53.63;;;28.90;;
38581;SDS011;24349;53.720;10.014;2023-02-08T06:30:47;49.00;;;26.17;;
38581;SDS011;24349;53.720;10.014;2023-02-08T06:33:13;45.92;;;24.55;;
38581;SDS011;24349;53.720;10.014;2023-02-08T06:35:39;51.63;;;27.20;;
38581;SDS011;24349;53.720;10.014;2023-02-08T06:38:04;49.95;;;27.08;;
38581;SDS011;24349;53.720;10.014;2023-02-08T06:40:30;48.20;;;26.77;;
38581;SDS011;24349;53.720;10.014;2023-02-08T06:42:55;55.95;;;29.17;;
38581;SDS011;24349;53.720;10.014;2023-02-08T06:45:21;53.72;;;27.85;;
38581;SDS011;24349;53.720;10.014;2023-02-08T06:47:47;55.78;;;28.83;;
38581;SDS011;24349;53.720;10.014;2023-02-08T06:50:12;52.00;;;26.95;;
38581;SDS011;24349;53.720;10.014;2023-02-08T06:52:39;49.80;;;25.35;;
38581;SDS011;24349;53.720;10.014;2023-02-08T06:55:05;49.17;;;26.20;;
38581;SDS011;24349;53.720;10.014;2023-02-08T06:57:30;47.58;;;25.35;;
38581;SDS011;24349;53.720;10.014;2023-02-08T06:59:56;55.63;;;27.90;;
38581;SDS011;24349;53.720;10.014;2023-02-08T07:02:22;45.95;;;24.83;;
38581;SDS011;24349;53.720;10.014;2023-02-08T07:04:47;51.28;;;25.83;;
38581;SDS011;24349;53.720;10.014;2023-02-08T07:07:13;47.92;;;24.48;;
38581;SDS011;24349;53.720;10.014;2023-02-08T07:09:40;49.55;;;26.42;;
38581;SDS011;24349;53.720;10.014;2023-02-08T07:12:06;50.13;;;24.95;;
38581;SDS011;24349;53.720;10.014;2023-02-08T07:14:33;45.60;;;22.88;;
38581;SDS011;24349;53.720;10.014;2023-02-08T07:17:01;55.45;;;28.90;;
38581;SDS011;24349;53.720;10.014;2023-02-08T07:19:27;45.33;;;24.00;;
38581;SDS011;24349;53.720;10.014;2023-02-08T07:21:54;48.67;;;25.63;;
38581;SDS011;24349;53.720;10.014;2023-02-08T07:24:20;44.25;;;24.75;;
38581;SDS011;24349;53.720;10.014;2023-02-08T07:26:46;46.10;;;25.02;;
38581;SDS011;24349;53.720;10.014;2023-02-08T07:29:12;47.13;;;27.95;;
38581;SDS011;24349;53.720;10.014;2023-02-08T07:31:37;41.85;;;24.08;;
38581;SDS011;24349;53.720;10.014;2023-02-08T07:34:03;42.55;;;23.80;;
38581;SDS011;24349;53.720;10.014;2023-02-08T07:36:29;41.28;;;24.17;;
38581;SDS011;24349;53.720;10.014;2023-02-08T07:38:55;38.05;;;22.65;;
38581;SDS011;24349;53.720;10.014;2023-02-08T07:41:20;45.45;;;28.33;;
38581;SDS011;24349;53.720;10.014;2023-02-08T07:43:46;39.50;;;23.60;;
38581;SDS011;24349;53.720;10.014;2023-02-08T07:46:13;37.10;;;23.13;;
38581;SDS011;24349;53.720;10.014;2023-02-08T07:48:41;40.20;;;24.92;;
38581;SDS011;24349;53.720;10.014;2023-02-08T07:51:07;39.90;;;25.83;;
38581;SDS011;24349;53.720;10.014;2023-02-08T07:53:34;44.08;;;28.67;;
38581;SDS011;24349;53.720;10.014;2023-02-08T07:55:59;42.28;;;26.20;;
38581;SDS011;24349;53.720;10.014;2023-02-08T07:58:25;37.55;;;25.02;;
38581;SDS011;24349;53.720;10.014;2023-02-08T08:00:51;36.78;;;24.23;;
38581;SDS011;24349;53.720;10.014;2023-02-08T08:03:17;39.47;;;25.10;;
38581;SDS011;24349;53.720;10.014;2023-02-08T08:05:43;38.30;;;25.05;;
38581;SDS011;24349;53.720;10.014;2023-02-08T08:08:09;49.05;;;27.90;;
38581;SDS011;24349;53.720;10.014;2023-02-08T08:10:35;39.35;;;25.45;;
38581;SDS011;24349;53.720;10.014;2023-02-08T08:13:01;42.00;;;27.00;;
38581;SDS011;24349;53.720;10.014;2023-02-08T08:15:27;39.88;;;24.67;;
38581;SDS011;24349;53.720;10.014;2023-02-08T08:17:53;44.78;;;28.35;;
38581;SDS011;24349;53.720;10.014;2023-02-08T08:20:18;38.95;;;25.00;;
38581;SDS011;24349;53.720;10.014;2023-02-08T08:22:44;43.50;;;27.67;;
38581;SDS011;24349;53.720;10.014;2023-02-08T08:25:10;45.03;;;27.27;;
38581;SDS011;24349;53.720;10.014;2023-02-08T08:27:36;41.83;;;25.52;;
38581;SDS011;24349;53.720;10.014;2023-02-08T08:30:02;43.13;;;27.85;;
38581;SDS011;24349;53.720;10.014;2023-02-08T08:32:30;40.65;;;26.23;;
38581;SDS011;24349;53.720;10.014;2023-02-08T08:34:55;41.72;;;27.58;;
38581;SDS011;24349;53.720;10.014;2023-02-08T08:37:21;40.17;;;25.67;;
38581;SDS011;24349;53.720;10.014;2023-02-08T08:39:47;38.55;;;24.65;;
38581;SDS011;24349;53.720;10.014;2023-02-08T08:42:12;38.80;;;24.08;;
38581;SDS011;24349;53.720;10.014;2023-02-08T08:44:38;40.40;;;26.38;;
38581;SDS011;24349;53.720;10.014;2023-02-08T08:47:04;36.50;;;24.98;;
38581;SDS011;24349;53.720;10.014;2023-02-08T08:49:29;38.85;;;25.80;;
38581;SDS011;24349;53.720;10.014;2023-02-08T08:51:55;36.33;;;25.30;;
38581;SDS011;24349;53.720;10.014;2023-02-08T08:54:22;38.63;;;26.48;;
38581;SDS011;24349;53.720;10.014;2023-02-08T08:56:48;39.38;;;26.92;;
38581;SDS011;24349;53.720;10.014;2023-02-08T08:59:13;37.92;;;27.40;;
38581;SDS011;24349;53.720;10.014;2023-02-08T09:01:39;38.80;;;25.98;;
38581;SDS011;24349;53.720;10.014;2023-02-08T09:04:06;37.38;;;24.05;;
38581;SDS011;24349;53.720;10.014;2023-02-08T09:06:33;38.22;;;25.25;;
38581;SDS011;24349;53.720;10.014;2023-02-08T09:08:59;35.17;;;24.95;;
38581;SDS011;24349;53.720;10.014;2023-02-08T09:11:25;39.55;;;25.83;;
38581;SDS011;24349;53.720;10.014;2023-02-08T09:13:51;34.92;;;24.58;;
38581;SDS011;24349;53.720;10.014;2023-02-08T09:16:19;35.35;;;23.77;;
38581;SDS011;24349;53.720;10.014;2023-02-08T09:18:46;40.83;;;26.75;;
38581;SDS011;24349;53.720;10.014;2023-02-08T09:21:13;37.70;;;24.90;;
38581;SDS011;24349;53.720;10.014;2023-02-08T09:23:40;38.90;;;25.38;;
38581;SDS011;24349;53.720;10.014;2023-02-08T09:26:08;36.08;;;24.98;;
38581;SDS011;24349;53.720;10.014;2023-02-08T09:28:35;41.55;;;28.33;;
38581;SDS011;24349;53.720;10.014;2023-02-08T09:31:11;41.70;;;25.98;;
38581;SDS011;24349;53.720;10.014;2023-02-08T09:33:42;39.20;;;25.70;;
38581;SDS011;24349;53.720;10.014;2023-02-08T09:36:07;41.00;;;25.98;;
38581;SDS011;24349;53.720;10.014;2023-02-08T09:38:33;39.00;;;26.42;;
38581;SDS011;24349;53.720;10.014;2023-02-08T09:46:35;37.28;;;24.15;;
38581;SDS011;24349;53.720;10.014;2023-02-08T09:49:05;37.58;;;24.48;;
38581;SDS011;24349;53.720;10.014;2023-02-08T09:51:40;34.25;;;23.25;;
38581;SDS011;24349;53.720;10.014;2023-02-08T09:59:11;34.40;;;22.63;;
38581;SDS011;24349;53.720;10.014;2023-02-08T10:01:45;35.42;;;22.15;;
38581;SDS011;24349;53.720;10.014;2023-02-08T10:04:21;32.95;;;22.65;;
38581;SDS011;24349;53.720;10.014;2023-02-08T10:07:01;32.50;;;21.63;;
38581;SDS011;24349;53.720;10.014;2023-02-08T10:09:27;33.40;;;22.98;;
38581;SDS011;24349;53.720;10.014;2023-02-08T10:17:34;32.72;;;23.45;;
38581;SDS011;24349;53.720;10.014;2023-02-08T10:25:24;29.40;;;21.20;;
38581;SDS011;24349;53.720;10.014;2023-02-08T10:37:28;28.95;;;20.95;;
38581;SDS011;24349;53.720;10.014;2023-02-08T10:42:47;26.85;;;18.60;;
38581;SDS011;24349;53.720;10.014;2023-02-08T10:45:29;27.77;;;19.80;;
38581;SDS011;24349;53.720;10.014;2023-02-08T10:48:30;29.00;;;18.83;;
38581;SDS011;24349;53.720;10.014;2023-02-08T10:51:02;26.67;;;18.00;;
38581;SDS011;24349;53.720;10.014;2023-02-08T10:53:28;28.30;;;19.50;;
38581;SDS011;24349;53.720;10.014;2023-02-08T10:55:54;26.67;;;18.35;;
38581;SDS011;24349;53.720;10.014;2023-02-08T10:58:21;26.02;;;17.77;;
38581;SDS011;24349;53.720;10.014;2023-02-08T11:00:50;25.73;;;17.45;;
38581;SDS011;24349;53.720;10.014;2023-02-08T11:05:47;26.13;;;18.10;;
38581;SDS011;24349;53.720;10.014;2023-02-08T11:08:17;27.42;;;18.23;;
38581;SDS011;24349;53.720;10.014;2023-02-08T11:13:23;26.35;;;17.00;;
38581;SDS011;24349;53.720;10.014;2023-02-08T11:15:55;28.45;;;18.23;;
38581;SDS011;24349;53.720;10.014;2023-02-08T11:18:29;26.35;;;18.85;;
38581;SDS011;24349;53.720;10.014;2023-02-08T11:21:01;30.85;;;19.25;;
38581;SDS011;24349;53.720;10.014;2023-02-08T11:23:36;27.15;;;18.15;;
38581;SDS011;24349;53.720;10.014;2023-02-08T11:26:23;26.85;;;17.80;;
38581;SDS011;24349;53.720;10.014;2023-02-08T11:29:04;24.90;;;16.77;;
38581;SDS011;24349;53.720;10.014;2023-02-08T11:31:36;29.08;;;19.63;;
38581;SDS011;24349;53.720;10.014;2023-02-08T11:34:05;24.63;;;16.88;;
38581;SDS011;24349;53.720;10.014;2023-02-08T11:36:35;27.48;;;19.38;;
38581;SDS011;24349;53.720;10.014;2023-02-08T11:39:17;26.20;;;17.70;;
38581;SDS011;24349;53.720;10.014;2023-02-08T11:41:53;26.65;;;18.00;;
38581;SDS011;24349;53.720;10.014;2023-02-08T11:44:26;27.35;;;17.73;;
38581;SDS011;24349;53.720;10.014;2023-02-08T11:46:58;23.08;;;16.05;;
38581;SDS011;24349;53.720;10.014;2023-02-08T11:49:42;23.60;;;17.13;;
38581;SDS011;24349;53.720;10.014;2023-02-08T11:54:45;28.45;;;18.67;;
38581;SDS011;24349;53.720;10.014;2023-02-08T11:57:13;30.27;;;18.70;;
38581;SDS011;24349;53.720;10.014;2023-02-08T11:59:43;24.60;;;16.53;;
38581;SDS011;24349;53.720;10.014;2023-02-08T12:05:09;24.80;;;17.60;;
38581;SDS011;24349;53.720;10.014;2023-02-08T12:08:35;26.83;;;18.07;;
38581;SDS011;24349;53.720;10.014;2023-02-08T12:21:37;26.27;;;16.42;;
38581;SDS011;24349;53.720;10.014;2023-02-08T12:24:26;26.00;;;17.90;;
38581;SDS011;24349;53.720;10.014;2023-02-08T12:27:06;26.67;;;16.23;;
38581;SDS011;24349;53.720;10.014;2023-02-08T12:32:49;26.38;;;17.00;;
38581;SDS011;24349;53.720;10.014;2023-02-08T12:49:31;28.67;;;16.85;;
38581;SDS011;24349;53.720;10.014;2023-02-08T12:54:50;24.98;;;15.55;;
38581;SDS011;24349;53.720;10.014;2023-02-08T12:57:25;26.60;;;16.33;;
38581;SDS011;24349;53.720;10.014;2023-02-08T13:02:34;27.15;;;15.85;;
38581;SDS011;24349;53.720;10.014;2023-02-08T13:05:14;26.63;;;15.57;;
38581;SDS011;24349;53.720;10.014;2023-02-08T13:07:43;25.73;;;15.10;;
38581;SDS011;24349;53.720;10.014;2023-02-08T13:10:24;23.65;;;14.27;;
38581;SDS011;24349;53.720;10.014;2023-02-08T13:12:59;27.00;;;14.48;;
38581;SDS011;24349;53.720;10.014;2023-02-08T13:15:36;24.67;;;15.77;;
38581;SDS011;24349;53.720;10.014;2023-02-08T13:18:03;22.45;;;13.43;;
38581;SDS011;24349;53.720;10.014;2023-02-08T13:20:57;24.00;;;14.50;;
38581;SDS011;24349;53.720;10.014;2023-02-08T13:23:37;24.17;;;13.43;;
38581;SDS011;24349;53.720;10.014;2023-02-08T13:26:26;23.17;;;13.52;;
38581;SDS011;24349;53.720;10.014;2023-02-08T13:28:58;24.55;;;13.73;;
38581;SDS011;24349;53.720;10.014;2023-02-08T13:31:32;24.17;;;13.77;;
38581;SDS011;24349;53.720;10.014;2023-02-08T13:37:00;26.42;;;15.15;;
38581;SDS011;24349;53.720;10.014;2023-02-08T13:39:41;25.42;;;13.77;;
38581;SDS011;24349;53.720;10.014;2023-02-08T13:45:07;26.60;;;13.75;;
38581;SDS011;24349;53.720;10.014;2023-02-08T13:47:47;26.35;;;14.10;;
38581;SDS011;24349;53.720;10.014;2023-02-08T13:53:04;22.05;;;11.80;;
38581;SDS011;24349;53.720;10.014;2023-02-08T13:57:58;25.35;;;13.80;;
38581;SDS011;24349;53.720;10.014;2023-02-08T14:00:25;21.25;;;11.73;;
38581;SDS011;24349;53.720;10.014;2023-02-08T14:02:57;20.80;;;11.32;;
38581;SDS011;24349;53.720;10.014;2023-02-08T14:08:07;20.50;;;11.27;;
38581;SDS011;24349;53.720;10.014;2023-02-08T14:11:02;20.48;;;10.95;;
38581;SDS011;24349;53.720;10.014;2023-02-08T14:13:50;18.63;;;10.23;;
38581;SDS011;24349;53.720;10.014;2023-02-08T14:18:51;19.95;;;10.50;;
38581;SDS011;24349;53.720;10.014;2023-02-08T14:23:58;21.10;;;12.48;;
38581;SDS011;24349;53.720;10.014;2023-02-08T14:26:32;21.10;;;10.60;;
38581;SDS011;24349;53.720;10.014;2023-02-08T14:29:00;19.60;;;10.43;;
38581;SDS011;24349;53.720;10.014;2023-02-08T14:31:40;18.83;;;10.25;;
38581;SDS011;24349;53.720;10.014;2023-02-08T14:34:19;20.58;;;10.80;;
38581;SDS011;24349;53.720;10.014;2023-02-08T14:45:46;17.30;;;9.93;;
38581;SDS011;24349;53.720;10.014;2023-02-08T14:50:47;17.70;;;9.93;;
38581;SDS011;24349;53.720;10.014;2023-02-08T14:53:19;19.10;;;10.23;;
38581;SDS011;24349;53.720;10.014;2023-02-08T14:55:51;18.50;;;9.90;;
38581;SDS011;24349;53.720;10.014;2023-02-08T14:58:33;19.00;;;10.18;;
38581;SDS011;24349;53.720;10.014;2023-02-08T15:01:05;19.75;;;10.05;;
38581;SDS011;24349;53.720;10.014;2023-02-08T15:03:36;19.08;;;9.68;;
38581;SDS011;24349;53.720;10.014;2023-02-08T15:11:26;16.70;;;8.93;;
38581;SDS011;24349;53.720;10.014;2023-02-08T15:13:55;19.35;;;9.48;;
38581;SDS011;24349;53.720;10.014;2023-02-08T15:16:25;21.13;;;10.27;;
38581;SDS011;24349;53.720;10.014;2023-02-08T15:19:01;19.63;;;10.68;;
38581;SDS011;24349;53.720;10.014;2023-02-08T15:21:29;19.83;;;11.43;;
38581;SDS011;24349;53.720;10.014;2023-02-08T15:24:02;20.77;;;10.68;;
38581;SDS011;24349;53.720;10.014;2023-02-08T15:26:31;19.83;;;11.20;;
38581;SDS011;24349;53.720;10.014;2023-02-08T15:28:57;20.48;;;11.10;;
38581;SDS011;24349;53.720;10.014;2023-02-08T15:31:34;21.48;;;11.50;;
38581;SDS011;24349;53.720;10.014;2023-02-08T15:34:00;21.65;;;10.57;;
38581;SDS011;24349;53.720;10.014;2023-02-08T15:36:33;21.00;;;11.75;;
38581;SDS011;24349;53.720;10.014;2023-02-08T15:39:03;19.52;;;10.32;;
38581;SDS011;24349;53.720;10.014;2023-02-08T15:41:41;19.77;;;10.90;;
38581;SDS011;24349;53.720;10.014;2023-02-08T15:44:16;21.40;;;11.25;;
38581;SDS011;24349;53.720;10.014;2023-02-08T15:46:50;19.23;;;11.33;;
38581;SDS011;24349;53.720;10.014;2023-02-08T15:49:25;20.48;;;10.65;;
38581;SDS011;24349;53.720;10.014;2023-02-08T15:52:02;24.05;;;12.07;;
38581;SDS011;24349;53.720;10.014;2023-02-08T15:54:28;23.05;;;13.05;;
38581;SDS011;24349;53.720;10.014;2023-02-08T15:56:56;21.40;;;10.88;;
38581;SDS011;24349;53.720;10.014;2023-02-08T15:59:32;21.42;;;11.48;;
38581;SDS011;24349;53.720;10.014;2023-02-08T16:02:34;21.27;;;11.98;;
38581;SDS011;24349;53.720;10.014;2023-02-08T16:07:28;19.40;;;10.90;;
38581;SDS011;24349;53.720;10.014;2023-02-08T16:10:01;22.75;;;13.63;;
38581;SDS011;24349;53.720;10.014;2023-02-08T16:12:28;22.73;;;12.43;;
38581;SDS011;24349;53.720;10.014;2023-02-08T16:14:54;26.35;;;12.90;;
38581;SDS011;24349;53.720;10.014;2023-02-08T16:17:35;24.23;;;12.30;;
38581;SDS011;24349;53.720;10.014;2023-02-08T16:20:02;23.67;;;12.85;;
38581;SDS011;24349;53.720;10.014;2023-02-08T16:22:51;25.00;;;13.00;;
38581;SDS011;24349;53.720;10.014;2023-02-08T16:26:07;21.45;;;12.27;;
38581;SDS011;24349;53.720;10.014;2023-02-08T16:28:28;20.85;;;11.88;;
38581;SDS011;24349;53.720;10.014;2023-02-08T16:30:56;23.42;;;12.75;;
38581;SDS011;24349;53.720;10.014;2023-02-08T16:33:24;26.10;;;13.73;;
38581;SDS011;24349;53.720;10.014;2023-02-08T16:35:50;26.55;;;14.00;;
38581;SDS011;24349;53.720;10.014;2023-02-08T16:38:18;24.15;;;13.65;;
38581;SDS011;24349;53.720;10.014;2023-02-08T16:40:53;27.73;;;13.50;;
38581;SDS011;24349;53.720;10.014;2023-02-08T16:48:48;23.25;;;13.43;;
38581;SDS011;24349;53.720;10.014;2023-02-08T16:51:25;25.55;;;13.90;;
38581;SDS011;24349;53.720;10.014;2023-02-08T16:54:02;26.27;;;14.07;;
38581;SDS011;24349;53.720;10.014;2023-02-08T16:56:35;28.95;;;15.63;;
38581;SDS011;24349;53.720;10.014;2023-02-08T16:59:02;24.65;;;14.00;;
38581;SDS011;24349;53.720;10.014;2023-02-08T17:01:27;25.65;;;14.25;;
38581;SDS011;24349;53.720;10.014;2023-02-08T17:03:53;27.02;;;14.25;;
38581;SDS011;24349;53.720;10.014;2023-02-08T17:06:20;27.42;;;14.10;;